Aérodrome :
LOGIN :

S'inscrire | Disclaimer

   EN    FR    IT 

 










Légende :    VFR   VFR Marginal   IFR   IFR Intensif   IFR Très Intensif
Visi : 
Plafond : 
>= 8 km
>= 3000ft
5 à 8 km
1000 à 3000 ft
1500m à 5 km
500 à 1000 ft
800 à 1500m
200 à 500 ft
< 800m
< 200 ft
Symboles :   Orages  Brouillard  Fortes neiges  Fortes précipitations  Vent > 20 kt
SIGMETs :   Divers  Orages  Givrage  Turbulence  Onde Orograph.  Cendres Volcan.







- Altitude de l'aérodrome : 44 ft
- Code IATA : SOU
- Voir les cartes d'approche


EGHI - Southampton

DERNIER METAR :
  • 221650Z 23005KT 200V260 9999 FEW008 SCT014TCU 03/02 Q0999

METARs EXPIRÉS :
  • 221620Z 23005KT 200V260 6000 -RA FEW009 BKN014 03/02 Q0999
  • 221550Z VRB03KT 8000 -RA SCT012 BKN023 04/02 Q0999
  • 221520Z VRB03KT 9999 -RA FEW025 BKN038 04/02 Q1000
  • 221450Z 21004KT 190V250 9999 -RA FEW020 BKN035 04/01 Q1000
  • 221420Z 19004KT 160V220 8000 -RA FEW018 BKN025 04/02 Q1000

TAF TAF EGHI
Valide du 22 à 15h jusqu'au 22 à 23h UTC


221359Z 2215/2223 23005KT 9999 FEW025
BECMG 2215/2218 31010KT
TEMPO 2215/2220 6000 SHRA BKN012
PROB30
TEMPO 2215/2218 3000 SHRASN BKN008
ATIS : +44 23 8062 7103
Pas de NOTAMs connus pour ce terrain.
1 SIGMET publié pour la FIR London (EGTT) :
 
Turbulence forte
EGTT SIGMET 02 VALID 221430/221830 EGRR
EGTT LONDON FIR SEV TURB FCST WI N5500 W00530 - N5500 W00400 - N5334 W00245 - N5124 W00151 - N5107 W00402 - N5355 W00530 - N5500 W00530 FL160/400 MOV E 15KT NC=



MET'MAP, la Météo Aéronautique d'un coup d'oeil ! - Copyright ORBIFLY Décembre 2007 - Disclaimer

ORBIFLY MET'MAP TEAM :

Programmation & Développement : Alexandra Zaïnal
Conception & Développement : Baudouin d'Aumeries
Co-Programmation & Développement : Marc-Olivier Méhu
Soutien technique & logistique : Manuel Goepfert

Contact : metmap@orbifly.com




SOURCES & CREDITS :

   NOAA